Terminal Aerodrome Forecast
Issued by NWS Mt. Holly, NJ

Home | Current Version | Previous Version | Text Only | Print | Product List | Glossary On
Versions: 1 2 3 4 5 6 7 8 9 10 11 12 13 14 15 16 17 18 19
698
FTUS41 KPHI 130236 AAA
TAFACY
TAF AMD
KACY 130236Z 1303/1324 28005KT P6SM OVC060
      TEMPO 1303/1307 5SM -SHSN BKN030
     FM130900 28012G20KT P6SM OVC040
     FM131200 31018G33KT P6SM SCT050
     FM131500 32020G35KT P6SM BKN050
     FM132200 32020G30KT P6SM SKC=

USA.gov is the U.S. government's official web portal to all federal, state and local government web resources and services.